sensor_id;sensor_type;location;lat;lon;timestamp;P1;durP1;ratioP1;P2;durP2;ratioP2
49450;SDS011;35336;48.400;10.886;2023-02-28T00:00:00;3.20;;;1.90;;
49450;SDS011;35336;48.400;10.886;2023-02-28T00:00:15;3.20;;;1.80;;
49450;SDS011;35336;48.400;10.886;2023-02-28T00:00:31;4.03;;;2.00;;
49450;SDS011;35336;48.400;10.886;2023-02-28T00:00:47;4.40;;;2.00;;
49450;SDS011;35336;48.400;10.886;2023-02-28T00:01:02;4.93;;;1.90;;
49450;SDS011;35336;48.400;10.886;2023-02-28T00:01:18;3.87;;;1.97;;
49450;SDS011;35336;48.400;10.886;2023-02-28T00:01:33;2.93;;;1.80;;
49450;SDS011;35336;48.400;10.886;2023-02-28T00:01:49;2.70;;;1.90;;
49450;SDS011;35336;48.400;10.886;2023-02-28T00:02:04;4.13;;;1.90;;
49450;SDS011;35336;48.400;10.886;2023-02-28T00:02:19;5.75;;;2.13;;
49450;SDS011;35336;48.400;10.886;2023-02-28T00:02:35;5.53;;;2.63;;
49450;SDS011;35336;48.400;10.886;2023-02-28T00:02:54;5.35;;;2.38;;
49450;SDS011;35336;48.400;10.886;2023-02-28T00:03:09;4.77;;;1.90;;
49450;SDS011;35336;48.400;10.886;2023-02-28T00:03:25;4.60;;;2.10;;
49450;SDS011;35336;48.400;10.886;2023-02-28T00:03:40;3.33;;;2.10;;
49450;SDS011;35336;48.400;10.886;2023-02-28T00:03:55;3.13;;;1.98;;
49450;SDS011;35336;48.400;10.886;2023-02-28T00:04:11;4.37;;;1.97;;
49450;SDS011;35336;48.400;10.886;2023-02-28T00:04:26;4.33;;;2.00;;
49450;SDS011;35336;48.400;10.886;2023-02-28T00:04:41;3.83;;;2.00;;
49450;SDS011;35336;48.400;10.886;2023-02-28T00:04:57;4.60;;;2.00;;
49450;SDS011;35336;48.400;10.886;2023-02-28T00:05:13;4.88;;;2.00;;
49450;SDS011;35336;48.400;10.886;2023-02-28T00:05:30;3.38;;;1.90;;
49450;SDS011;35336;48.400;10.886;2023-02-28T00:05:46;3.22;;;1.77;;
49450;SDS011;35336;48.400;10.886;2023-02-28T00:06:05;3.00;;;1.77;;
49450;SDS011;35336;48.400;10.886;2023-02-28T00:06:23;3.33;;;2.10;;
49450;SDS011;35336;48.400;10.886;2023-02-28T00:06:39;3.90;;;2.30;;
49450;SDS011;35336;48.400;10.886;2023-02-28T00:06:54;4.07;;;2.08;;
49450;SDS011;35336;48.400;10.886;2023-02-28T00:07:09;3.77;;;1.90;;
49450;SDS011;35336;48.400;10.886;2023-02-28T00:07:25;4.20;;;2.00;;
49450;SDS011;35336;48.400;10.886;2023-02-28T00:07:40;3.85;;;1.92;;
49450;SDS011;35336;48.400;10.886;2023-02-28T00:07:56;3.40;;;1.83;;
49450;SDS011;35336;48.400;10.886;2023-02-28T00:08:11;4.00;;;1.92;;
49450;SDS011;35336;48.400;10.886;2023-02-28T00:08:26;3.80;;;2.00;;
49450;SDS011;35336;48.400;10.886;2023-02-28T00:08:42;3.83;;;2.10;;
49450;SDS011;35336;48.400;10.886;2023-02-28T00:08:57;4.77;;;2.43;;
49450;SDS011;35336;48.400;10.886;2023-02-28T00:09:12;4.63;;;2.50;;
49450;SDS011;35336;48.400;10.886;2023-02-28T00:09:28;3.83;;;2.43;;
49450;SDS011;35336;48.400;10.886;2023-02-28T00:09:43;3.70;;;2.13;;
49450;SDS011;35336;48.400;10.886;2023-02-28T00:09:58;3.97;;;2.00;;
49450;SDS011;35336;48.400;10.886;2023-02-28T00:10:15;5.45;;;2.60;;
49450;SDS011;35336;48.400;10.886;2023-02-28T00:10:34;6.07;;;2.65;;
49450;SDS011;35336;48.400;10.886;2023-02-28T00:10:49;4.77;;;2.27;;
49450;SDS011;35336;48.400;10.886;2023-02-28T00:11:05;5.17;;;2.40;;
49450;SDS011;35336;48.400;10.886;2023-02-28T00:11:22;5.30;;;2.38;;
49450;SDS011;35336;48.400;10.886;2023-02-28T00:11:38;5.57;;;2.30;;
49450;SDS011;35336;48.400;10.886;2023-02-28T00:11:53;5.73;;;2.30;;
49450;SDS011;35336;48.400;10.886;2023-02-28T00:12:08;5.10;;;2.10;;
49450;SDS011;35336;48.400;10.886;2023-02-28T00:12:24;4.18;;;1.95;;
49450;SDS011;35336;48.400;10.886;2023-02-28T00:12:39;4.03;;;1.93;;
49450;SDS011;35336;48.400;10.886;2023-02-28T00:12:55;4.07;;;2.13;;
49450;SDS011;35336;48.400;10.886;2023-02-28T00:13:15;4.43;;;2.35;;
49450;SDS011;35336;48.400;10.886;2023-02-28T00:13:30;4.67;;;2.20;;
49450;SDS011;35336;48.400;10.886;2023-02-28T00:13:46;4.70;;;2.40;;
49450;SDS011;35336;48.400;10.886;2023-02-28T00:14:02;5.20;;;2.60;;
49450;SDS011;35336;48.400;10.886;2023-02-28T00:14:17;4.45;;;2.35;;
49450;SDS011;35336;48.400;10.886;2023-02-28T00:14:33;3.57;;;2.10;;
49450;SDS011;35336;48.400;10.886;2023-02-28T00:14:48;3.27;;;2.13;;
49450;SDS011;35336;48.400;10.886;2023-02-28T00:15:08;4.85;;;2.30;;
49450;SDS011;35336;48.400;10.886;2023-02-28T00:15:24;5.25;;;2.30;;
49450;SDS011;35336;48.400;10.886;2023-02-28T00:15:40;3.95;;;2.30;;
49450;SDS011;35336;48.400;10.886;2023-02-28T00:16:03;3.60;;;2.30;;
49450;SDS011;35336;48.400;10.886;2023-02-28T00:16:26;3.88;;;2.30;;
49450;SDS011;35336;48.400;10.886;2023-02-28T00:16:42;4.57;;;2.30;;
49450;SDS011;35336;48.400;10.886;2023-02-28T00:16:57;5.47;;;2.37;;
49450;SDS011;35336;48.400;10.886;2023-02-28T00:17:12;4.70;;;2.50;;
49450;SDS011;35336;48.400;10.886;2023-02-28T00:17:28;3.83;;;2.13;;
49450;SDS011;35336;48.400;10.886;2023-02-28T00:17:43;4.27;;;2.20;;
49450;SDS011;35336;48.400;10.886;2023-02-28T00:17:59;4.22;;;2.47;;
49450;SDS011;35336;48.400;10.886;2023-02-28T00:18:14;3.60;;;2.20;;
49450;SDS011;35336;48.400;10.886;2023-02-28T00:18:29;4.67;;;2.20;;
49450;SDS011;35336;48.400;10.886;2023-02-28T00:18:45;6.10;;;2.20;;
49450;SDS011;35336;48.400;10.886;2023-02-28T00:19:00;5.85;;;2.30;;
49450;SDS011;35336;48.400;10.886;2023-02-28T00:19:15;5.23;;;2.50;;
49450;SDS011;35336;48.400;10.886;2023-02-28T00:19:31;4.47;;;2.50;;
49450;SDS011;35336;48.400;10.886;2023-02-28T00:19:47;4.47;;;2.38;;
49450;SDS011;35336;48.400;10.886;2023-02-28T00:20:03;5.25;;;2.28;;
49450;SDS011;35336;48.400;10.886;2023-02-28T00:20:20;4.65;;;2.13;;
49450;SDS011;35336;48.400;10.886;2023-02-28T00:20:36;4.67;;;2.00;;
49450;SDS011;35336;48.400;10.886;2023-02-28T00:20:51;4.83;;;2.20;;
49450;SDS011;35336;48.400;10.886;2023-02-28T00:21:06;4.25;;;2.40;;
49450;SDS011;35336;48.400;10.886;2023-02-28T00:21:22;4.00;;;2.17;;
49450;SDS011;35336;48.400;10.886;2023-02-28T00:21:37;3.63;;;2.13;;
49450;SDS011;35336;48.400;10.886;2023-02-28T00:21:52;4.20;;;2.40;;
49450;SDS011;35336;48.400;10.886;2023-02-28T00:22:08;4.17;;;2.30;;
49450;SDS011;35336;48.400;10.886;2023-02-28T00:22:23;3.85;;;2.13;;
49450;SDS011;35336;48.400;10.886;2023-02-28T00:22:39;3.73;;;2.33;;
49450;SDS011;35336;48.400;10.886;2023-02-28T00:22:56;4.07;;;2.58;;
49450;SDS011;35336;48.400;10.886;2023-02-28T00:23:11;4.13;;;2.40;;
49450;SDS011;35336;48.400;10.886;2023-02-28T00:23:27;4.20;;;2.33;;
49450;SDS011;35336;48.400;10.886;2023-02-28T00:23:43;4.90;;;2.33;;
49450;SDS011;35336;48.400;10.886;2023-02-28T00:23:58;4.85;;;2.30;;
49450;SDS011;35336;48.400;10.886;2023-02-28T00:24:13;4.50;;;2.30;;
49450;SDS011;35336;48.400;10.886;2023-02-28T00:24:28;4.53;;;2.57;;
49450;SDS011;35336;48.400;10.886;2023-02-28T00:24:44;4.43;;;2.58;;
49450;SDS011;35336;48.400;10.886;2023-02-28T00:25:00;3.90;;;2.22;;
49450;SDS011;35336;48.400;10.886;2023-02-28T00:25:16;4.13;;;2.23;;
49450;SDS011;35336;48.400;10.886;2023-02-28T00:25:37;4.72;;;2.42;;
49450;SDS011;35336;48.400;10.886;2023-02-28T00:25:52;4.30;;;2.30;;
49450;SDS011;35336;48.400;10.886;2023-02-28T00:26:08;5.13;;;2.30;;
49450;SDS011;35336;48.400;10.886;2023-02-28T00:26:27;5.03;;;2.40;;
49450;SDS011;35336;48.400;10.886;2023-02-28T00:26:42;4.68;;;2.40;;
49450;SDS011;35336;48.400;10.886;2023-02-28T00:26:57;4.77;;;2.27;;
49450;SDS011;35336;48.400;10.886;2023-02-28T00:27:13;5.05;;;2.17;;
49450;SDS011;35336;48.400;10.886;2023-02-28T00:27:30;4.68;;;2.20;;
49450;SDS011;35336;48.400;10.886;2023-02-28T00:27:45;3.70;;;2.22;;
49450;SDS011;35336;48.400;10.886;2023-02-28T00:28:01;3.58;;;2.40;;
49450;SDS011;35336;48.400;10.886;2023-02-28T00:28:16;4.47;;;2.60;;
49450;SDS011;35336;48.400;10.886;2023-02-28T00:28:32;4.38;;;2.60;;
49450;SDS011;35336;48.400;10.886;2023-02-28T00:28:47;3.70;;;2.30;;
49450;SDS011;35336;48.400;10.886;2023-02-28T00:29:03;4.05;;;2.30;;
49450;SDS011;35336;48.400;10.886;2023-02-28T00:29:18;4.10;;;2.23;;
49450;SDS011;35336;48.400;10.886;2023-02-28T00:29:33;4.23;;;2.20;;
49450;SDS011;35336;48.400;10.886;2023-02-28T00:29:49;3.90;;;2.30;;
49450;SDS011;35336;48.400;10.886;2023-02-28T00:30:04;3.50;;;2.27;;
49450;SDS011;35336;48.400;10.886;2023-02-28T00:30:22;4.47;;;2.45;;
49450;SDS011;35336;48.400;10.886;2023-02-28T00:30:38;5.07;;;2.45;;
49450;SDS011;35336;48.400;10.886;2023-02-28T00:30:53;4.47;;;2.30;;
49450;SDS011;35336;48.400;10.886;2023-02-28T00:31:09;4.33;;;2.20;;
49450;SDS011;35336;48.400;10.886;2023-02-28T00:31:24;4.40;;;2.20;;
49450;SDS011;35336;48.400;10.886;2023-02-28T00:31:39;5.23;;;2.40;;
49450;SDS011;35336;48.400;10.886;2023-02-28T00:31:55;5.15;;;2.50;;
49450;SDS011;35336;48.400;10.886;2023-02-28T00:32:10;4.40;;;2.20;;
49450;SDS011;35336;48.400;10.886;2023-02-28T00:32:25;4.45;;;2.10;;
49450;SDS011;35336;48.400;10.886;2023-02-28T00:32:41;3.43;;;2.27;;
49450;SDS011;35336;48.400;10.886;2023-02-28T00:32:56;3.40;;;2.30;;
49450;SDS011;35336;48.400;10.886;2023-02-28T00:33:11;3.85;;;2.33;;
49450;SDS011;35336;48.400;10.886;2023-02-28T00:33:27;3.87;;;2.40;;
49450;SDS011;35336;48.400;10.886;2023-02-28T00:33:43;3.40;;;2.20;;
49450;SDS011;35336;48.400;10.886;2023-02-28T00:33:58;6.63;;;2.10;;
49450;SDS011;35336;48.400;10.886;2023-02-28T00:34:14;7.00;;;2.33;;
49450;SDS011;35336;48.400;10.886;2023-02-28T00:34:29;4.32;;;2.47;;
49450;SDS011;35336;48.400;10.886;2023-02-28T00:34:44;4.13;;;2.20;;
49450;SDS011;35336;48.400;10.886;2023-02-28T00:35:00;3.23;;;2.10;;
49450;SDS011;35336;48.400;10.886;2023-02-28T00:35:17;3.25;;;2.05;;
49450;SDS011;35336;48.400;10.886;2023-02-28T00:35:33;3.47;;;2.17;;
49450;SDS011;35336;48.400;10.886;2023-02-28T00:35:48;4.17;;;2.40;;
49450;SDS011;35336;48.400;10.886;2023-02-28T00:36:05;4.65;;;2.38;;
49450;SDS011;35336;48.400;10.886;2023-02-28T00:36:22;3.70;;;2.20;;
49450;SDS011;35336;48.400;10.886;2023-02-28T00:36:37;3.33;;;2.10;;
49450;SDS011;35336;48.400;10.886;2023-02-28T00:36:53;4.07;;;2.17;;
49450;SDS011;35336;48.400;10.886;2023-02-28T00:37:09;5.07;;;2.10;;
49450;SDS011;35336;48.400;10.886;2023-02-28T00:37:25;3.45;;;2.10;;
49450;SDS011;35336;48.400;10.886;2023-02-28T00:37:41;4.47;;;2.07;;
49450;SDS011;35336;48.400;10.886;2023-02-28T00:37:56;5.55;;;2.30;;
49450;SDS011;35336;48.400;10.886;2023-02-28T00:38:12;4.90;;;2.47;;
49450;SDS011;35336;48.400;10.886;2023-02-28T00:38:28;4.30;;;2.28;;
49450;SDS011;35336;48.400;10.886;2023-02-28T00:38:44;3.53;;;2.23;;
49450;SDS011;35336;48.400;10.886;2023-02-28T00:38:59;3.50;;;2.35;;
49450;SDS011;35336;48.400;10.886;2023-02-28T00:39:15;3.83;;;2.13;;
49450;SDS011;35336;48.400;10.886;2023-02-28T00:39:30;4.40;;;2.17;;
49450;SDS011;35336;48.400;10.886;2023-02-28T00:39:45;6.40;;;2.43;;
49450;SDS011;35336;48.400;10.886;2023-02-28T00:40:01;5.43;;;2.25;;
49450;SDS011;35336;48.400;10.886;2023-02-28T00:40:18;4.95;;;2.25;;
49450;SDS011;35336;48.400;10.886;2023-02-28T00:40:33;4.88;;;2.40;;
49450;SDS011;35336;48.400;10.886;2023-02-28T00:40:48;4.27;;;2.47;;
49450;SDS011;35336;48.400;10.886;2023-02-28T00:41:04;4.53;;;2.43;;
49450;SDS011;35336;48.400;10.886;2023-02-28T00:41:19;4.35;;;2.17;;
49450;SDS011;35336;48.400;10.886;2023-02-28T00:41:34;3.97;;;2.00;;
49450;SDS011;35336;48.400;10.886;2023-02-28T00:41:50;3.17;;;2.00;;
49450;SDS011;35336;48.400;10.886;2023-02-28T00:42:05;4.00;;;2.27;;
49450;SDS011;35336;48.400;10.886;2023-02-28T00:42:22;5.05;;;2.50;;
49450;SDS011;35336;48.400;10.886;2023-02-28T00:42:38;4.05;;;2.35;;
49450;SDS011;35336;48.400;10.886;2023-02-28T00:42:54;3.78;;;2.40;;
49450;SDS011;35336;48.400;10.886;2023-02-28T00:43:09;4.53;;;2.30;;
49450;SDS011;35336;48.400;10.886;2023-02-28T00:43:25;4.05;;;2.17;;
49450;SDS011;35336;48.400;10.886;2023-02-28T00:43:40;4.30;;;2.17;;
49450;SDS011;35336;48.400;10.886;2023-02-28T00:43:55;4.40;;;2.30;;
49450;SDS011;35336;48.400;10.886;2023-02-28T00:44:11;3.67;;;2.40;;
49450;SDS011;35336;48.400;10.886;2023-02-28T00:44:26;3.93;;;2.30;;
49450;SDS011;35336;48.400;10.886;2023-02-28T00:44:41;4.10;;;2.40;;
49450;SDS011;35336;48.400;10.886;2023-02-28T00:44:57;4.93;;;2.63;;
49450;SDS011;35336;48.400;10.886;2023-02-28T00:45:12;4.47;;;2.60;;
49450;SDS011;35336;48.400;10.886;2023-02-28T00:45:28;4.20;;;2.63;;
49450;SDS011;35336;48.400;10.886;2023-02-28T00:45:43;4.53;;;2.57;;
49450;SDS011;35336;48.400;10.886;2023-02-28T00:45:58;5.03;;;2.60;;
49450;SDS011;35336;48.400;10.886;2023-02-28T00:46:13;4.33;;;2.50;;
49450;SDS011;35336;48.400;10.886;2023-02-28T00:46:29;3.03;;;2.25;;
49450;SDS011;35336;48.400;10.886;2023-02-28T00:46:44;3.20;;;2.13;;
49450;SDS011;35336;48.400;10.886;2023-02-28T00:46:59;3.47;;;2.13;;
49450;SDS011;35336;48.400;10.886;2023-02-28T00:47:15;3.92;;;2.30;;
49450;SDS011;35336;48.400;10.886;2023-02-28T00:47:31;3.63;;;2.10;;
49450;SDS011;35336;48.400;10.886;2023-02-28T00:47:47;4.15;;;2.13;;
49450;SDS011;35336;48.400;10.886;2023-02-28T00:48:02;4.53;;;2.53;;
49450;SDS011;35336;48.400;10.886;2023-02-28T00:48:18;5.80;;;2.60;;
49450;SDS011;35336;48.400;10.886;2023-02-28T00:48:33;5.43;;;2.30;;
49450;SDS011;35336;48.400;10.886;2023-02-28T00:48:48;3.73;;;2.20;;
49450;SDS011;35336;48.400;10.886;2023-02-28T00:49:03;3.08;;;1.98;;
49450;SDS011;35336;48.400;10.886;2023-02-28T00:49:19;2.70;;;1.93;;
49450;SDS011;35336;48.400;10.886;2023-02-28T00:49:35;3.63;;;2.28;;
49450;SDS011;35336;48.400;10.886;2023-02-28T00:49:50;4.03;;;2.27;;
49450;SDS011;35336;48.400;10.886;2023-02-28T00:50:05;4.10;;;2.27;;
49450;SDS011;35336;48.400;10.886;2023-02-28T00:50:21;4.18;;;2.33;;
49450;SDS011;35336;48.400;10.886;2023-02-28T00:50:36;3.67;;;2.00;;
49450;SDS011;35336;48.400;10.886;2023-02-28T00:50:52;3.53;;;2.03;;
49450;SDS011;35336;48.400;10.886;2023-02-28T00:51:07;3.47;;;2.20;;
49450;SDS011;35336;48.400;10.886;2023-02-28T00:51:23;4.23;;;2.10;;
49450;SDS011;35336;48.400;10.886;2023-02-28T00:51:38;5.07;;;2.37;;
49450;SDS011;35336;48.400;10.886;2023-02-28T00:51:54;6.05;;;2.90;;
49450;SDS011;35336;48.400;10.886;2023-02-28T00:52:10;5.60;;;2.80;;
49450;SDS011;35336;48.400;10.886;2023-02-28T00:52:25;5.33;;;2.60;;
49450;SDS011;35336;48.400;10.886;2023-02-28T00:52:41;5.45;;;2.50;;
49450;SDS011;35336;48.400;10.886;2023-02-28T00:52:56;7.90;;;2.80;;
49450;SDS011;35336;48.400;10.886;2023-02-28T00:53:11;7.97;;;2.67;;
49450;SDS011;35336;48.400;10.886;2023-02-28T00:53:27;4.10;;;2.40;;
49450;SDS011;35336;48.400;10.886;2023-02-28T00:53:43;4.55;;;2.47;;
49450;SDS011;35336;48.400;10.886;2023-02-28T00:53:58;5.20;;;2.30;;
49450;SDS011;35336;48.400;10.886;2023-02-28T00:54:13;4.87;;;2.40;;
49450;SDS011;35336;48.400;10.886;2023-02-28T00:54:29;4.90;;;2.50;;
49450;SDS011;35336;48.400;10.886;2023-02-28T00:54:44;4.57;;;2.40;;
49450;SDS011;35336;48.400;10.886;2023-02-28T00:54:59;4.47;;;2.53;;
49450;SDS011;35336;48.400;10.886;2023-02-28T00:55:15;4.13;;;2.57;;
49450;SDS011;35336;48.400;10.886;2023-02-28T00:55:30;4.10;;;2.38;;
49450;SDS011;35336;48.400;10.886;2023-02-28T00:55:45;4.70;;;2.10;;
49450;SDS011;35336;48.400;10.886;2023-02-28T00:56:01;4.97;;;2.40;;
49450;SDS011;35336;48.400;10.886;2023-02-28T00:56:16;5.20;;;2.42;;
49450;SDS011;35336;48.400;10.886;2023-02-28T00:56:31;5.73;;;2.37;;
49450;SDS011;35336;48.400;10.886;2023-02-28T00:56:47;5.20;;;2.30;;
49450;SDS011;35336;48.400;10.886;2023-02-28T00:57:03;4.80;;;2.28;;
49450;SDS011;35336;48.400;10.886;2023-02-28T00:57:18;4.03;;;2.25;;
49450;SDS011;35336;48.400;10.886;2023-02-28T00:57:33;3.50;;;1.93;;
49450;SDS011;35336;48.400;10.886;2023-02-28T00:57:49;4.77;;;2.03;;
49450;SDS011;35336;48.400;10.886;2023-02-28T00:58:04;5.20;;;2.30;;
49450;SDS011;35336;48.400;10.886;2023-02-28T00:58:19;4.10;;;2.30;;
49450;SDS011;35336;48.400;10.886;2023-02-28T00:58:35;3.20;;;2.13;;
49450;SDS011;35336;48.400;10.886;2023-02-28T00:58:50;3.92;;;2.25;;
49450;SDS011;35336;48.400;10.886;2023-02-28T00:59:05;4.60;;;2.30;;
49450;SDS011;35336;48.400;10.886;2023-02-28T00:59:20;3.87;;;2.10;;
49450;SDS011;35336;48.400;10.886;2023-02-28T00:59:36;4.70;;;2.40;;
49450;SDS011;35336;48.400;10.886;2023-02-28T00:59:51;4.83;;;2.57;;
49450;SDS011;35336;48.400;10.886;2023-02-28T01:00:07;5.05;;;2.55;;
49450;SDS011;35336;48.400;10.886;2023-02-28T01:00:23;5.28;;;2.65;;
49450;SDS011;35336;48.400;10.886;2023-02-28T01:00:38;4.53;;;2.43;;
49450;SDS011;35336;48.400;10.886;2023-02-28T01:00:54;4.83;;;2.60;;
49450;SDS011;35336;48.400;10.886;2023-02-28T01:01:09;4.57;;;2.42;;
49450;SDS011;35336;48.400;10.886;2023-02-28T01:01:24;4.73;;;2.07;;
49450;SDS011;35336;48.400;10.886;2023-02-28T01:01:40;4.15;;;2.10;;
49450;SDS011;35336;48.400;10.886;2023-02-28T01:01:55;4.17;;;2.00;;
49450;SDS011;35336;48.400;10.886;2023-02-28T01:02:11;4.45;;;2.10;;
49450;SDS011;35336;48.400;10.886;2023-02-28T01:02:26;3.80;;;2.50;;
49450;SDS011;35336;48.400;10.886;2023-02-28T01:02:42;4.00;;;2.47;;
49450;SDS011;35336;48.400;10.886;2023-02-28T01:02:57;4.17;;;2.40;;
49450;SDS011;35336;48.400;10.886;2023-02-28T01:03:12;5.33;;;2.60;;
49450;SDS011;35336;48.400;10.886;2023-02-28T01:03:28;7.15;;;2.55;;
49450;SDS011;35336;48.400;10.886;2023-02-28T01:03:43;6.80;;;2.50;;
49450;SDS011;35336;48.400;10.886;2023-02-28T01:03:58;4.80;;;2.60;;
49450;SDS011;35336;48.400;10.886;2023-02-28T01:04:14;3.73;;;2.53;;
49450;SDS011;35336;48.400;10.886;2023-02-28T01:04:29;4.82;;;2.42;;
49450;SDS011;35336;48.400;10.886;2023-02-28T01:04:45;5.38;;;2.25;;
49450;SDS011;35336;48.400;10.886;2023-02-28T01:05:01;4.10;;;2.45;;
49450;SDS011;35336;48.400;10.886;2023-02-28T01:05:16;4.13;;;2.70;;
49450;SDS011;35336;48.400;10.886;2023-02-28T01:05:31;6.03;;;2.60;;
49450;SDS011;35336;48.400;10.886;2023-02-28T01:05:47;5.43;;;2.28;;
49450;SDS011;35336;48.400;10.886;2023-02-28T01:06:02;3.93;;;2.30;;
49450;SDS011;35336;48.400;10.886;2023-02-28T01:06:17;5.95;;;2.42;;
49450;SDS011;35336;48.400;10.886;2023-02-28T01:06:33;6.20;;;2.47;;
49450;SDS011;35336;48.400;10.886;2023-02-28T01:06:49;3.72;;;2.30;;
49450;SDS011;35336;48.400;10.886;2023-02-28T01:07:04;3.67;;;2.23;;
49450;SDS011;35336;48.400;10.886;2023-02-28T01:07:19;4.70;;;2.38;;
49450;SDS011;35336;48.400;10.886;2023-02-28T01:07:35;6.40;;;2.80;;
49450;SDS011;35336;48.400;10.886;2023-02-28T01:07:50;6.53;;;2.63;;
49450;SDS011;35336;48.400;10.886;2023-02-28T01:08:05;5.72;;;2.22;;
49450;SDS011;35336;48.400;10.886;2023-02-28T01:08:21;5.70;;;2.47;;
49450;SDS011;35336;48.400;10.886;2023-02-28T01:08:36;4.40;;;2.47;;
49450;SDS011;35336;48.400;10.886;2023-02-28T01:08:52;6.83;;;2.40;;
49450;SDS011;35336;48.400;10.886;2023-02-28T01:09:07;6.90;;;2.47;;
49450;SDS011;35336;48.400;10.886;2023-02-28T01:09:23;3.30;;;2.25;;
49450;SDS011;35336;48.400;10.886;2023-02-28T01:09:38;3.70;;;2.17;;
49450;SDS011;35336;48.400;10.886;2023-02-28T01:09:54;4.70;;;2.50;;
49450;SDS011;35336;48.400;10.886;2023-02-28T01:10:09;6.13;;;2.73;;
49450;SDS011;35336;48.400;10.886;2023-02-28T01:10:25;10.30;;;2.70;;
49450;SDS011;35336;48.400;10.886;2023-02-28T01:10:42;8.90;;;2.50;;
49450;SDS011;35336;48.400;10.886;2023-02-28T01:10:58;4.00;;;2.37;;
49450;SDS011;35336;48.400;10.886;2023-02-28T01:11:22;4.35;;;2.30;;
49450;SDS011;35336;48.400;10.886;2023-02-28T01:11:38;4.70;;;2.40;;
49450;SDS011;35336;48.400;10.886;2023-02-28T01:11:53;4.17;;;2.33;;
49450;SDS011;35336;48.400;10.886;2023-02-28T01:12:08;4.15;;;2.15;;
49450;SDS011;35336;48.400;10.886;2023-02-28T01:12:24;4.20;;;2.10;;
49450;SDS011;35336;48.400;10.886;2023-02-28T01:12:39;4.13;;;1.90;;
49450;SDS011;35336;48.400;10.886;2023-02-28T01:12:54;4.63;;;2.17;;
49450;SDS011;35336;48.400;10.886;2023-02-28T01:13:10;4.77;;;2.50;;
49450;SDS011;35336;48.400;10.886;2023-02-28T01:13:26;5.00;;;2.40;;
49450;SDS011;35336;48.400;10.886;2023-02-28T01:13:42;5.07;;;2.30;;
49450;SDS011;35336;48.400;10.886;2023-02-28T01:13:59;3.85;;;2.40;;
49450;SDS011;35336;48.400;10.886;2023-02-28T01:14:15;3.10;;;2.10;;
49450;SDS011;35336;48.400;10.886;2023-02-28T01:14:31;4.05;;;2.17;;
49450;SDS011;35336;48.400;10.886;2023-02-28T01:14:47;4.93;;;2.40;;
49450;SDS011;35336;48.400;10.886;2023-02-28T01:15:02;4.90;;;2.57;;
49450;SDS011;35336;48.400;10.886;2023-02-28T01:15:18;4.65;;;2.53;;
49450;SDS011;35336;48.400;10.886;2023-02-28T01:15:33;4.57;;;2.42;;
49450;SDS011;35336;48.400;10.886;2023-02-28T01:15:50;4.93;;;2.67;;
49450;SDS011;35336;48.400;10.886;2023-02-28T01:16:08;4.43;;;2.33;;
49450;SDS011;35336;48.400;10.886;2023-02-28T01:16:23;3.90;;;2.13;;
49450;SDS011;35336;48.400;10.886;2023-02-28T01:16:39;5.33;;;2.30;;
49450;SDS011;35336;48.400;10.886;2023-02-28T01:16:54;4.80;;;2.22;;
49450;SDS011;35336;48.400;10.886;2023-02-28T01:17:10;4.70;;;2.47;;
49450;SDS011;35336;48.400;10.886;2023-02-28T01:17:25;5.63;;;2.73;;
49450;SDS011;35336;48.400;10.886;2023-02-28T01:17:40;3.90;;;2.55;;
49450;SDS011;35336;48.400;10.886;2023-02-28T01:17:56;4.13;;;2.43;;
49450;SDS011;35336;48.400;10.886;2023-02-28T01:18:11;4.13;;;2.43;;
49450;SDS011;35336;48.400;10.886;2023-02-28T01:18:26;3.88;;;2.60;;
49450;SDS011;35336;48.400;10.886;2023-02-28T01:18:42;4.57;;;2.70;;
49450;SDS011;35336;48.400;10.886;2023-02-28T01:18:57;4.80;;;2.65;;
49450;SDS011;35336;48.400;10.886;2023-02-28T01:19:13;5.03;;;2.67;;
49450;SDS011;35336;48.400;10.886;2023-02-28T01:19:28;4.10;;;2.43;;
49450;SDS011;35336;48.400;10.886;2023-02-28T01:19:44;3.40;;;2.07;;
49450;SDS011;35336;48.400;10.886;2023-02-28T01:19:59;3.33;;;2.17;;
49450;SDS011;35336;48.400;10.886;2023-02-28T01:20:14;3.60;;;2.23;;
49450;SDS011;35336;48.400;10.886;2023-02-28T01:20:30;3.97;;;2.17;;
49450;SDS011;35336;48.400;10.886;2023-02-28T01:20:45;4.93;;;2.40;;
49450;SDS011;35336;48.400;10.886;2023-02-28T01:21:11;5.87;;;2.63;;
49450;SDS011;35336;48.400;10.886;2023-02-28T01:21:27;5.80;;;2.40;;
49450;SDS011;35336;48.400;10.886;2023-02-28T01:21:43;6.57;;;2.43;;
49450;SDS011;35336;48.400;10.886;2023-02-28T01:22:00;5.72;;;2.50;;
49450;SDS011;35336;48.400;10.886;2023-02-28T01:22:17;5.45;;;2.30;;
49450;SDS011;35336;48.400;10.886;2023-02-28T01:22:32;6.47;;;2.33;;
49450;SDS011;35336;48.400;10.886;2023-02-28T01:22:49;7.13;;;2.50;;
49450;SDS011;35336;48.400;10.886;2023-02-28T01:23:05;5.63;;;2.50;;
49450;SDS011;35336;48.400;10.886;2023-02-28T01:23:21;3.30;;;2.30;;
49450;SDS011;35336;48.400;10.886;2023-02-28T01:23:37;3.97;;;2.20;;
49450;SDS011;35336;48.400;10.886;2023-02-28T01:23:52;5.10;;;2.38;;
49450;SDS011;35336;48.400;10.886;2023-02-28T01:24:07;5.10;;;2.60;;
49450;SDS011;35336;48.400;10.886;2023-02-28T01:24:22;5.23;;;2.50;;
49450;SDS011;35336;48.400;10.886;2023-02-28T01:24:38;4.93;;;2.45;;
49450;SDS011;35336;48.400;10.886;2023-02-28T01:24:53;5.60;;;2.53;;
49450;SDS011;35336;48.400;10.886;2023-02-28T01:25:09;6.70;;;2.50;;
49450;SDS011;35336;48.400;10.886;2023-02-28T01:25:24;4.63;;;2.23;;
49450;SDS011;35336;48.400;10.886;2023-02-28T01:25:39;4.13;;;2.10;;
49450;SDS011;35336;48.400;10.886;2023-02-28T01:25:55;4.47;;;2.30;;
49450;SDS011;35336;48.400;10.886;2023-02-28T01:26:12;3.93;;;2.50;;
49450;SDS011;35336;48.400;10.886;2023-02-28T01:26:35;4.72;;;2.40;;
49450;SDS011;35336;48.400;10.886;2023-02-28T01:26:51;7.47;;;2.75;;
49450;SDS011;35336;48.400;10.886;2023-02-28T01:27:06;6.10;;;2.60;;
49450;SDS011;35336;48.400;10.886;2023-02-28T01:27:21;6.10;;;2.37;;
49450;SDS011;35336;48.400;10.886;2023-02-28T01:27:37;5.72;;;2.30;;
49450;SDS011;35336;48.400;10.886;2023-02-28T01:27:52;3.07;;;2.13;;
49450;SDS011;35336;48.400;10.886;2023-02-28T01:28:07;3.72;;;2.10;;
49450;SDS011;35336;48.400;10.886;2023-02-28T01:28:23;3.93;;;2.10;;
49450;SDS011;35336;48.400;10.886;2023-02-28T01:28:38;4.83;;;2.33;;
49450;SDS011;35336;48.400;10.886;2023-02-28T01:28:54;5.30;;;2.55;;
49450;SDS011;35336;48.400;10.886;2023-02-28T01:29:10;5.25;;;2.40;;
49450;SDS011;35336;48.400;10.886;2023-02-28T01:29:25;6.93;;;2.67;;
49450;SDS011;35336;48.400;10.886;2023-02-28T01:29:41;5.20;;;2.38;;
49450;SDS011;35336;48.400;10.886;2023-02-28T01:29:56;3.60;;;2.20;;
49450;SDS011;35336;48.400;10.886;2023-02-28T01:30:11;4.95;;;2.47;;
49450;SDS011;35336;48.400;10.886;2023-02-28T01:30:27;6.00;;;2.40;;
49450;SDS011;35336;48.400;10.886;2023-02-28T01:30:46;6.43;;;2.47;;
49450;SDS011;35336;48.400;10.886;2023-02-28T01:31:03;6.72;;;2.72;;
49450;SDS011;35336;48.400;10.886;2023-02-28T01:31:18;4.13;;;2.40;;
49450;SDS011;35336;48.400;10.886;2023-02-28T01:31:35;3.50;;;2.25;;
49450;SDS011;35336;48.400;10.886;2023-02-28T01:31:50;3.95;;;2.60;;
49450;SDS011;35336;48.400;10.886;2023-02-28T01:32:06;4.73;;;2.70;;
49450;SDS011;35336;48.400;10.886;2023-02-28T01:32:21;5.17;;;2.73;;
49450;SDS011;35336;48.400;10.886;2023-02-28T01:32:36;5.05;;;2.50;;
49450;SDS011;35336;48.400;10.886;2023-02-28T01:32:52;4.27;;;2.43;;
49450;SDS011;35336;48.400;10.886;2023-02-28T01:33:07;3.90;;;2.50;;
49450;SDS011;35336;48.400;10.886;2023-02-28T01:33:22;3.30;;;2.17;;